Whitefish Falls, Canada
Current Conditions -  °F | °C
As of 1:00 PM on Thursday 23 Oct 2014 (Local Time) from CYZE Reporting Station
Clear Clear  
Wind Chill: 50°   Ceiling: Unl
Heat Index: 50°   Visibility: 9mi
Dew Point: 41°   Wind: 5mph
Humidity: 71%   Direction: 310°NW
Pressure: 30.19"   Gusts: NA
Location:  46.1°N, 81.72°W
Report Text: CYZE 231700Z AUTO 31004KT 280V350 9SM CLR 10/05 A3019 RMK SLP230
Loading
Personal Weather Stations






























Interactive Weather Map
Tropical Storm Tracking
New forecast layout! Learn more

10-Day Weather Forecast

Advertisements
Track Severe Weather on mobile